createdAt,value
2022-09-13T00:00:43.878Z,99.90
2022-09-13T00:03:12.535Z,99.90
2022-09-13T00:05:39.643Z,99.90
2022-09-13T00:08:07.413Z,99.90
2022-09-13T00:10:36.026Z,99.90
2022-09-13T00:13:02.757Z,99.90
2022-09-13T00:15:30.070Z,99.90
2022-09-13T00:17:56.851Z,99.90
2022-09-13T00:20:24.106Z,99.90
2022-09-13T00:22:51.258Z,99.90
2022-09-13T00:25:18.259Z,99.90
2022-09-13T00:27:45.124Z,99.90
2022-09-13T00:30:12.799Z,99.90
2022-09-13T00:32:39.776Z,99.90
2022-09-13T00:35:07.290Z,99.90
2022-09-13T00:37:34.417Z,99.90
2022-09-13T00:40:01.622Z,99.90
2022-09-13T00:42:32.604Z,99.90
2022-09-13T00:45:15.868Z,99.90
2022-09-13T00:47:42.506Z,99.90
2022-09-13T00:50:14.788Z,99.90
2022-09-13T00:52:46.862Z,99.90
2022-09-13T00:55:34.992Z,99.90
2022-09-13T00:58:08.833Z,99.90
2022-09-13T01:00:36.333Z,99.90
2022-09-13T01:03:08.796Z,99.90
2022-09-13T01:05:42.542Z,99.90
2022-09-13T01:08:18.071Z,99.90
2022-09-13T01:10:45.266Z,99.90
2022-09-13T01:13:20.061Z,99.90
2022-09-13T01:15:47.797Z,99.90
2022-09-13T01:18:15.481Z,99.90
2022-09-13T01:21:12.568Z,99.90
2022-09-13T01:23:42.273Z,99.90
2022-09-13T01:26:52.710Z,99.90
2022-09-13T01:29:38.211Z,99.90
2022-09-13T01:32:36.005Z,99.90
2022-09-13T01:35:27.797Z,99.90
2022-09-13T01:38:35.229Z,99.90
2022-09-13T01:41:04.659Z,99.90
2022-09-13T01:43:56.282Z,99.90
2022-09-13T01:46:32.054Z,99.90
2022-09-13T01:49:20.041Z,99.90
2022-09-13T01:51:50.645Z,99.90
2022-09-13T01:54:36.630Z,99.90
2022-09-13T01:57:14.731Z,99.90
2022-09-13T01:59:49.884Z,99.90
2022-09-13T02:02:28.394Z,99.90
2022-09-13T02:05:04.545Z,99.90
2022-09-13T02:07:38.114Z,99.90
2022-09-13T02:10:16.496Z,99.90
2022-09-13T02:12:45.505Z,99.90
2022-09-13T02:15:18.523Z,99.90
2022-09-13T02:17:55.294Z,99.90
2022-09-13T02:20:26.670Z,99.90
2022-09-13T02:22:57.932Z,99.90
2022-09-13T02:25:27.895Z,99.90
2022-09-13T02:27:59.851Z,99.90
2022-09-13T02:30:33.336Z,99.90
2022-09-13T02:33:36.057Z,99.90
2022-09-13T02:36:12.022Z,99.90
2022-09-13T02:38:48.984Z,99.90
2022-09-13T02:41:30.314Z,99.90
2022-09-13T02:44:22.529Z,99.90
2022-09-13T02:47:18.775Z,99.90
2022-09-13T02:49:53.294Z,99.90
2022-09-13T02:52:44.055Z,99.90
2022-09-13T02:55:30.993Z,99.90
2022-09-13T02:58:03.058Z,99.90
2022-09-13T03:00:30.024Z,99.90
2022-09-13T03:02:59.924Z,99.90
2022-09-13T03:05:26.612Z,99.90
2022-09-13T03:07:53.823Z,99.90
2022-09-13T03:10:24.389Z,99.90
2022-09-13T03:13:29.061Z,99.90
2022-09-13T03:16:08.283Z,99.90
2022-09-13T03:18:46.938Z,99.90
2022-09-13T03:21:25.536Z,99.90
2022-09-13T03:24:03.476Z,99.90
2022-09-13T03:26:38.747Z,99.90
2022-09-13T03:29:31.586Z,99.90
2022-09-13T03:32:16.283Z,99.90
2022-09-13T03:35:12.063Z,99.90
2022-09-13T03:38:01.299Z,99.90
2022-09-13T03:40:54.756Z,99.90
2022-09-13T03:43:24.554Z,99.90
2022-09-13T03:46:01.019Z,99.90
2022-09-13T03:48:28.714Z,99.90
2022-09-13T03:50:55.649Z,99.90
2022-09-13T03:53:28.448Z,99.90
2022-09-13T03:55:55.176Z,99.90
2022-09-13T03:58:25.333Z,99.90
2022-09-13T04:00:53.165Z,99.90
2022-09-13T04:03:19.977Z,99.90
2022-09-13T04:05:46.878Z,99.90
2022-09-13T04:08:13.771Z,99.90
2022-09-13T04:10:40.686Z,99.90
2022-09-13T04:13:07.415Z,99.90
2022-09-13T04:15:34.116Z,99.90
2022-09-13T04:18:01.213Z,99.90
2022-09-13T04:20:29.670Z,99.90
2022-09-13T04:23:00.043Z,99.90
2022-09-13T04:25:27.494Z,99.90
2022-09-13T04:27:55.489Z,99.90
2022-09-13T04:30:23.304Z,99.90
2022-09-13T04:32:52.405Z,99.90
2022-09-13T04:35:19.758Z,99.90
2022-09-13T04:37:48.865Z,99.90
2022-09-13T04:40:15.750Z,99.90
2022-09-13T04:42:44.779Z,99.90
2022-09-13T04:45:11.592Z,99.90
2022-09-13T04:47:38.346Z,99.90
2022-09-13T04:50:05.276Z,99.90
2022-09-13T04:52:32.083Z,99.90
2022-09-13T04:55:01.492Z,99.90
2022-09-13T04:57:29.062Z,99.90
2022-09-13T04:59:55.871Z,99.90
2022-09-13T05:02:22.645Z,99.90
2022-09-13T05:04:49.371Z,99.90
2022-09-13T05:07:16.123Z,99.90
2022-09-13T05:09:42.800Z,99.90
2022-09-13T05:12:09.517Z,99.90
2022-09-13T05:14:36.214Z,99.90
2022-09-13T05:17:02.892Z,99.90
2022-09-13T05:19:29.567Z,99.90
2022-09-13T05:21:56.291Z,99.90
2022-09-13T05:24:22.978Z,99.90
2022-09-13T05:26:49.724Z,99.90
2022-09-13T05:29:16.387Z,99.90
2022-09-13T05:31:43.554Z,99.90
2022-09-13T05:34:14.381Z,99.90
2022-09-13T05:36:42.007Z,99.90
2022-09-13T05:39:36.512Z,99.90
2022-09-13T05:42:02.968Z,99.90
2022-09-13T05:44:29.677Z,99.90
2022-09-13T05:46:56.351Z,99.90
2022-09-13T05:49:23.136Z,99.90
2022-09-13T05:51:49.805Z,99.90
2022-09-13T05:54:16.713Z,99.90
2022-09-13T05:56:43.375Z,99.90
2022-09-13T05:59:14.625Z,99.90
2022-09-13T06:01:41.994Z,99.90
2022-09-13T06:04:08.806Z,99.90
2022-09-13T06:06:36.021Z,99.90
2022-09-13T06:09:03.634Z,99.90
2022-09-13T06:11:30.309Z,99.90
2022-09-13T06:13:56.991Z,99.90
2022-09-13T06:16:23.668Z,99.90
2022-09-13T06:18:50.726Z,99.90
2022-09-13T06:21:27.126Z,99.90
2022-09-13T06:23:55.695Z,99.90
2022-09-13T06:26:24.631Z,99.90
2022-09-13T06:28:53.989Z,99.90
2022-09-13T06:31:22.567Z,99.90
2022-09-13T06:33:49.407Z,99.90
2022-09-13T06:36:18.452Z,99.90
2022-09-13T06:38:46.338Z,99.90
2022-09-13T06:41:19.961Z,99.90
2022-09-13T06:43:47.956Z,99.90
2022-09-13T06:46:19.481Z,99.90
2022-09-13T06:48:48.828Z,99.90
2022-09-13T06:51:18.130Z,99.90
2022-09-13T06:53:46.650Z,99.90
2022-09-13T06:56:19.291Z,99.90
2022-09-13T06:58:48.389Z,99.90
2022-09-13T07:01:17.215Z,99.90
2022-09-13T07:03:55.794Z,99.90
2022-09-13T07:06:24.682Z,98.60
2022-09-13T07:08:52.713Z,97.90
2022-09-13T07:11:21.346Z,95.90
2022-09-13T07:13:55.364Z,93.70
2022-09-13T07:16:25.504Z,92.70
2022-09-13T07:18:56.873Z,91.60
2022-09-13T07:21:24.509Z,90.20
2022-09-13T07:23:52.348Z,89.30
2022-09-13T07:26:19.297Z,86.70
2022-09-13T07:28:49.423Z,84.30
2022-09-13T07:31:22.605Z,84.30
2022-09-13T07:33:55.214Z,82.70
2022-09-13T07:36:22.178Z,81.80
2022-09-13T07:38:49.000Z,80.60
2022-09-13T07:41:21.663Z,80.60
2022-09-13T07:43:48.712Z,80.00
2022-09-13T07:46:17.845Z,79.90
2022-09-13T07:48:46.671Z,82.20
2022-09-13T07:51:18.535Z,82.40
2022-09-13T07:53:46.241Z,83.50
2022-09-13T07:56:15.689Z,82.50
2022-09-13T07:58:47.967Z,84.40
2022-09-13T08:01:20.550Z,78.10
2022-09-13T08:03:57.154Z,79.20
2022-09-13T08:06:25.924Z,77.00
2022-09-13T08:08:53.017Z,78.10
2022-09-13T08:11:32.376Z,80.10
2022-09-13T08:13:59.420Z,82.20
2022-09-13T08:16:28.318Z,81.30
2022-09-13T08:18:57.408Z,81.90
2022-09-13T08:21:25.285Z,82.10
2022-09-13T08:23:56.582Z,82.70
2022-09-13T08:26:23.726Z,84.20
2022-09-13T08:28:55.599Z,86.70
2022-09-13T08:31:23.189Z,87.10
2022-09-13T08:33:50.135Z,86.30
2022-09-13T08:36:18.351Z,90.90
2022-09-13T08:38:49.902Z,86.40
2022-09-13T08:41:38.764Z,89.20
2022-09-13T08:44:08.580Z,90.50
2022-09-13T08:46:43.523Z,90.20
2022-09-13T08:49:35.851Z,88.60
2022-09-13T08:52:31.265Z,88.90
2022-09-13T08:55:12.235Z,88.40
2022-09-13T08:57:51.307Z,90.10
2022-09-13T09:00:26.454Z,89.60
2022-09-13T09:02:59.484Z,90.00
2022-09-13T09:05:30.476Z,89.30
2022-09-13T09:08:13.748Z,88.30
2022-09-13T09:10:46.667Z,86.60
2022-09-13T09:13:28.602Z,85.80
2022-09-13T09:16:07.289Z,84.40
2022-09-13T09:18:45.724Z,85.00
2022-09-13T09:21:18.301Z,85.20
2022-09-13T09:23:51.954Z,83.00
2022-09-13T09:26:30.222Z,80.10
2022-09-13T09:29:09.958Z,78.70
2022-09-13T09:32:03.564Z,77.50
2022-09-13T09:34:55.611Z,78.10
2022-09-13T09:37:25.131Z,75.50
2022-09-13T09:40:01.222Z,78.20
2022-09-13T09:42:32.779Z,75.40
2022-09-13T09:45:33.391Z,76.30
2022-09-13T09:48:07.091Z,75.70
2022-09-13T09:50:39.172Z,74.80
2022-09-13T09:53:14.339Z,74.20
2022-09-13T09:55:45.637Z,73.50
2022-09-13T09:58:16.753Z,73.50
2022-09-13T10:00:57.799Z,73.10
2022-09-13T10:03:27.636Z,73.70
2022-09-13T10:06:30.906Z,72.10
2022-09-13T10:09:03.681Z,71.70
2022-09-13T10:11:49.042Z,72.70
2022-09-13T10:14:29.644Z,73.20
2022-09-13T10:17:12.858Z,71.80
2022-09-13T10:19:39.557Z,71.50
2022-09-13T10:22:12.067Z,73.00
2022-09-13T10:24:39.473Z,72.40
2022-09-13T10:27:39.555Z,71.50
2022-09-13T10:30:07.338Z,71.80
2022-09-13T10:32:34.227Z,72.80
2022-09-13T10:35:16.222Z,73.10
2022-09-13T10:37:44.148Z,78.80
2022-09-13T10:40:25.816Z,78.80
2022-09-13T10:43:05.410Z,78.60
2022-09-13T10:45:32.862Z,80.50
2022-09-13T10:48:09.740Z,79.30
2022-09-13T10:50:37.187Z,80.90
2022-09-13T10:53:24.213Z,80.40
2022-09-13T10:55:54.754Z,80.70
2022-09-13T10:58:21.791Z,79.70
2022-09-13T11:01:00.806Z,79.80
2022-09-13T11:03:39.642Z,80.50
2022-09-13T11:06:37.000Z,79.80
2022-09-13T11:09:09.166Z,80.20
2022-09-13T11:12:09.294Z,80.80
2022-09-13T11:15:01.633Z,81.20
2022-09-13T11:18:00.048Z,81.10
2022-09-13T11:20:42.935Z,81.10
2022-09-13T11:23:22.171Z,79.90
2022-09-13T11:26:05.496Z,80.40
2022-09-13T11:28:57.654Z,80.10
2022-09-13T11:31:46.665Z,81.10
2022-09-13T11:34:20.007Z,82.30
2022-09-13T11:36:53.483Z,83.30
2022-09-13T11:40:01.125Z,82.70
2022-09-13T11:42:53.038Z,81.40
2022-09-13T11:45:42.685Z,80.40
2022-09-13T11:48:24.194Z,80.60
2022-09-13T11:51:11.069Z,82.50
2022-09-13T11:53:53.091Z,81.10
2022-09-13T11:56:40.234Z,84.10
2022-09-13T11:59:28.587Z,84.60
2022-09-13T12:02:00.077Z,84.80
2022-09-13T12:05:23.741Z,84.40
2022-09-13T12:07:57.040Z,82.50
2022-09-13T12:10:29.277Z,85.00
2022-09-13T12:12:58.031Z,85.70
2022-09-13T12:15:42.687Z,86.10
2022-09-13T12:18:34.522Z,83.00
2022-09-13T12:21:20.420Z,84.10
2022-09-13T12:24:02.523Z,82.90
2022-09-13T12:26:46.869Z,85.90
2022-09-13T12:29:49.248Z,85.00
2022-09-13T12:32:18.857Z,82.20
2022-09-13T12:35:09.865Z,83.90
2022-09-13T12:38:01.692Z,79.80
2022-09-13T12:40:47.787Z,82.50
2022-09-13T12:43:20.671Z,81.40
2022-09-13T12:46:05.821Z,83.60
2022-09-13T12:49:00.949Z,81.50
2022-09-13T12:51:56.888Z,81.70
2022-09-13T12:55:04.577Z,81.70
2022-09-13T12:57:50.361Z,81.80
2022-09-13T13:00:31.028Z,80.50
2022-09-13T13:03:13.245Z,81.20
2022-09-13T13:05:54.719Z,81.20
2022-09-13T13:08:29.448Z,84.60
2022-09-13T13:11:03.773Z,83.30
2022-09-13T13:13:44.742Z,84.30
2022-09-13T13:16:34.667Z,81.50
2022-09-13T13:19:04.125Z,82.50
2022-09-13T13:21:40.083Z,78.70
2022-09-13T13:24:16.043Z,79.60
2022-09-13T13:26:42.984Z,83.80
2022-09-13T13:29:26.313Z,82.10
2022-09-13T13:32:10.391Z,79.90
2022-09-13T13:34:44.511Z,81.80
2022-09-13T13:37:11.344Z,83.40
2022-09-13T13:39:46.807Z,80.40
2022-09-13T13:42:24.867Z,82.70
2022-09-13T13:44:55.744Z,82.40
2022-09-13T13:47:22.749Z,82.00
2022-09-13T13:50:13.659Z,83.50
2022-09-13T13:52:52.889Z,80.60
2022-09-13T13:55:43.900Z,82.10
2022-09-13T13:58:17.710Z,81.40
2022-09-13T14:00:52.591Z,82.50
2022-09-13T14:03:33.494Z,83.60
2022-09-13T14:06:38.891Z,82.50
2022-09-13T14:09:30.464Z,83.60
2022-09-13T14:12:19.375Z,81.40
2022-09-13T14:15:03.293Z,86.40
2022-09-13T14:17:37.125Z,82.30
2022-09-13T14:20:12.364Z,84.90
2022-09-13T14:22:42.271Z,82.70
2022-09-13T14:25:30.737Z,83.10
2022-09-13T14:28:03.405Z,87.30
2022-09-13T14:30:39.949Z,89.20
2022-09-13T14:33:19.310Z,86.70
2022-09-13T14:35:47.152Z,90.40
2022-09-13T14:38:21.911Z,85.60
2022-09-13T14:40:58.409Z,87.60
2022-09-13T14:43:28.054Z,82.90
2022-09-13T14:46:18.719Z,82.80
2022-09-13T14:48:51.869Z,86.60
2022-09-13T14:51:22.298Z,92.40
2022-09-13T14:53:57.912Z,92.70
2022-09-13T14:56:44.560Z,94.30
2022-09-13T14:59:31.160Z,90.40
2022-09-13T15:02:05.671Z,89.10
2022-09-13T15:04:33.666Z,83.10
2022-09-13T15:07:17.295Z,85.60
2022-09-13T15:09:46.183Z,89.40
2022-09-13T15:12:26.325Z,85.00
2022-09-13T15:15:28.099Z,91.60
2022-09-13T15:17:59.155Z,84.60
2022-09-13T15:20:45.237Z,90.60
2022-09-13T15:23:24.979Z,88.00
2022-09-13T15:25:59.947Z,93.20
2022-09-13T15:28:32.913Z,91.80
2022-09-13T15:31:01.178Z,93.30
2022-09-13T15:33:34.453Z,91.60
2022-09-13T15:36:20.464Z,89.50
2022-09-13T15:39:08.870Z,89.80
2022-09-13T15:41:38.208Z,89.80
2022-09-13T15:44:09.888Z,90.40
2022-09-13T15:46:54.980Z,86.30
2022-09-13T15:49:27.281Z,86.30
2022-09-13T15:52:05.623Z,84.20
2022-09-13T15:54:35.556Z,84.30
2022-09-13T15:57:06.193Z,87.80
2022-09-13T15:59:33.111Z,89.20
2022-09-13T16:02:17.416Z,91.50
2022-09-13T16:04:44.719Z,92.50
2022-09-13T16:07:13.478Z,94.80
2022-09-13T16:09:40.640Z,91.70
2022-09-13T16:12:07.560Z,90.70
2022-09-13T16:14:34.396Z,91.30
2022-09-13T16:17:13.964Z,92.40
2022-09-13T16:19:41.358Z,92.80
2022-09-13T16:22:12.554Z,93.70
2022-09-13T16:24:39.661Z,94.60
2022-09-13T16:27:06.693Z,95.70
2022-09-13T16:29:33.498Z,94.60
2022-09-13T16:32:01.686Z,92.70
2022-09-13T16:34:28.626Z,97.10
2022-09-13T16:36:55.441Z,96.00
2022-09-13T16:39:22.261Z,97.40
2022-09-13T16:41:49.194Z,98.10
2022-09-13T16:44:16.426Z,98.10
2022-09-13T16:46:43.886Z,98.30
2022-09-13T16:49:11.002Z,97.90
2022-09-13T16:51:38.324Z,98.30
2022-09-13T16:54:05.495Z,99.40
2022-09-13T16:56:33.401Z,99.40
2022-09-13T16:59:09.845Z,98.70
2022-09-13T17:01:38.892Z,99.50
2022-09-13T17:04:08.150Z,99.50
2022-09-13T17:06:36.134Z,99.80
2022-09-13T17:09:08.885Z,99.90
2022-09-13T17:11:41.800Z,99.90
2022-09-13T17:14:12.741Z,99.90
2022-09-13T17:16:44.884Z,99.90
2022-09-13T17:19:18.202Z,99.90
2022-09-13T17:21:53.228Z,99.90
2022-09-13T17:24:21.181Z,99.90
2022-09-13T17:26:49.316Z,99.90
2022-09-13T17:29:20.291Z,99.90
2022-09-13T17:31:48.177Z,99.90
2022-09-13T17:34:16.254Z,99.90
2022-09-13T17:36:46.323Z,99.90
2022-09-13T17:39:19.835Z,99.90
2022-09-13T17:41:48.964Z,99.90
2022-09-13T17:44:28.813Z,99.90
2022-09-13T17:46:59.701Z,99.90
2022-09-13T17:49:36.836Z,99.90
2022-09-13T17:52:04.588Z,99.90
2022-09-13T17:54:32.553Z,99.90
2022-09-13T17:57:00.270Z,99.90
2022-09-13T17:59:27.898Z,99.90
2022-09-13T18:01:56.524Z,99.90
2022-09-13T18:04:23.710Z,99.90
2022-09-13T18:06:52.321Z,99.90
2022-09-13T18:09:19.472Z,99.90
2022-09-13T18:11:46.534Z,99.90
2022-09-13T18:14:18.011Z,99.90
2022-09-13T18:16:45.380Z,99.90
2022-09-13T18:19:13.108Z,99.90
2022-09-13T18:21:40.055Z,99.90
2022-09-13T18:24:07.323Z,99.90
2022-09-13T18:26:34.670Z,99.90
2022-09-13T18:29:13.098Z,99.90
2022-09-13T18:31:41.391Z,99.90
2022-09-13T18:34:13.435Z,99.90
2022-09-13T18:36:41.311Z,99.90
2022-09-13T18:39:18.059Z,99.90
2022-09-13T18:41:46.944Z,99.90
2022-09-13T18:44:15.489Z,99.90
2022-09-13T18:46:43.127Z,99.90
2022-09-13T18:49:10.523Z,99.90
2022-09-13T18:51:39.988Z,99.90
2022-09-13T18:54:08.377Z,99.90
2022-09-13T18:56:35.951Z,99.90
2022-09-13T18:59:06.028Z,99.90
2022-09-13T19:01:35.695Z,99.90
2022-09-13T19:04:06.023Z,99.90
2022-09-13T19:06:42.019Z,99.90
2022-09-13T19:09:10.639Z,99.90
2022-09-13T19:11:48.880Z,99.90
2022-09-13T19:14:27.661Z,99.90
2022-09-13T19:16:56.692Z,99.90
2022-09-13T19:19:25.656Z,99.90
2022-09-13T19:21:52.465Z,99.90
2022-09-13T19:24:20.794Z,99.90
2022-09-13T19:26:50.918Z,99.90
2022-09-13T19:29:20.336Z,99.90
2022-09-13T19:31:49.239Z,99.90
2022-09-13T19:34:18.275Z,99.90
2022-09-13T19:36:47.888Z,99.90
2022-09-13T19:39:14.673Z,99.90
2022-09-13T19:41:41.924Z,99.90
2022-09-13T19:44:10.307Z,99.90
2022-09-13T19:46:39.722Z,99.90
2022-09-13T19:49:08.497Z,99.90
2022-09-13T19:51:48.842Z,99.90
2022-09-13T19:54:20.816Z,99.90
2022-09-13T19:56:47.697Z,99.90
2022-09-13T19:59:16.825Z,99.90
2022-09-13T20:01:45.120Z,99.90
2022-09-13T20:04:18.251Z,99.90
2022-09-13T20:06:49.904Z,99.90
2022-09-13T20:09:45.816Z,99.90
2022-09-13T20:13:30.716Z,99.90
2022-09-13T20:15:57.536Z,99.90
2022-09-13T20:18:25.096Z,99.90
2022-09-13T20:20:56.482Z,99.90
2022-09-13T20:23:24.028Z,99.90
2022-09-13T20:25:50.976Z,99.90
2022-09-13T20:28:17.629Z,99.90
2022-09-13T20:30:53.475Z,99.90
2022-09-13T20:33:20.470Z,99.90
2022-09-13T20:35:47.265Z,99.90
2022-09-13T20:38:13.948Z,99.90
2022-09-13T20:40:40.656Z,99.90
2022-09-13T20:43:08.025Z,99.90
2022-09-13T20:45:34.685Z,99.90
2022-09-13T20:48:01.527Z,99.90
2022-09-13T20:50:28.888Z,99.90
2022-09-13T20:52:57.176Z,99.90
2022-09-13T20:55:24.841Z,99.90
2022-09-13T20:57:51.584Z,99.90
2022-09-13T21:00:18.332Z,99.90
2022-09-13T21:02:45.060Z,99.90
2022-09-13T21:05:12.494Z,99.90
2022-09-13T21:07:57.678Z,99.90
2022-09-13T21:10:26.000Z,99.90
2022-09-13T21:12:53.113Z,99.90
2022-09-13T21:15:20.393Z,99.90
2022-09-13T21:17:47.590Z,99.90
2022-09-13T21:20:14.854Z,99.90
2022-09-13T21:22:42.451Z,99.90
2022-09-13T21:25:09.334Z,99.90
2022-09-13T21:27:36.008Z,99.90
2022-09-13T21:30:03.004Z,99.90
2022-09-13T21:32:36.604Z,99.90
2022-09-13T21:35:03.522Z,99.90
2022-09-13T21:37:30.222Z,99.90
2022-09-13T21:39:56.951Z,99.90
2022-09-13T21:42:23.703Z,99.90
2022-09-13T21:44:50.528Z,99.90
2022-09-13T21:47:17.234Z,99.90
2022-09-13T21:49:45.207Z,99.90
2022-09-13T21:52:12.470Z,99.90
2022-09-13T21:54:39.160Z,99.90
2022-09-13T21:57:06.248Z,99.90
2022-09-13T21:59:32.986Z,99.90
2022-09-13T22:02:00.783Z,99.90
2022-09-13T22:04:27.746Z,99.90
2022-09-13T22:06:57.565Z,99.90
2022-09-13T22:09:27.025Z,99.90
2022-09-13T22:11:56.331Z,99.90
2022-09-13T22:14:23.237Z,99.90
2022-09-13T22:16:52.382Z,99.90
2022-09-13T22:19:26.028Z,99.90
2022-09-13T22:21:55.932Z,99.90
2022-09-13T22:24:24.554Z,99.90
2022-09-13T22:26:52.954Z,99.90
2022-09-13T22:29:20.493Z,99.90
2022-09-13T22:31:49.608Z,99.90
2022-09-13T22:34:22.481Z,99.90
2022-09-13T22:36:49.607Z,99.90
2022-09-13T22:39:17.416Z,99.90
2022-09-13T22:41:45.253Z,99.90
2022-09-13T22:44:11.978Z,99.90
2022-09-13T22:46:41.010Z,99.90
2022-09-13T22:49:11.304Z,99.90
2022-09-13T22:51:37.951Z,99.90
2022-09-13T22:54:07.175Z,99.90
2022-09-13T22:56:35.784Z,99.90
2022-09-13T22:59:08.528Z,99.90
2022-09-13T23:01:36.196Z,99.90
2022-09-13T23:04:03.394Z,99.90
2022-09-13T23:06:31.310Z,99.90
2022-09-13T23:09:01.165Z,99.90
2022-09-13T23:11:31.004Z,99.90
2022-09-13T23:14:00.677Z,99.90
2022-09-13T23:16:30.202Z,99.90
2022-09-13T23:18:57.491Z,99.90
2022-09-13T23:21:28.136Z,99.90
2022-09-13T23:23:55.660Z,99.90
2022-09-13T23:26:23.441Z,99.90
2022-09-13T23:28:58.811Z,99.90
2022-09-13T23:31:34.816Z,99.90
2022-09-13T23:34:03.713Z,99.90
2022-09-13T23:36:34.293Z,99.90
2022-09-13T23:39:03.542Z,99.90
2022-09-13T23:41:31.134Z,99.90
2022-09-13T23:43:57.889Z,99.90
2022-09-13T23:46:24.881Z,99.90
2022-09-13T23:48:51.602Z,99.90
2022-09-13T23:51:23.801Z,99.90
2022-09-13T23:53:52.104Z,99.90
2022-09-13T23:56:19.405Z,99.90
2022-09-13T23:58:46.531Z,99.90
